sensor_id;sensor_type;location;lat;lon;timestamp;pressure;altitude;pressure_sealevel;temperature
15709;BMP180;7954;51.914;8.420;2023-07-24T00:02:15;99317.78;;;25.14
15709;BMP180;7954;51.914;8.420;2023-07-24T00:04:43;99313.88;;;25.09
15709;BMP180;7954;51.914;8.420;2023-07-24T00:07:11;99309.38;;;24.98
15709;BMP180;7954;51.914;8.420;2023-07-24T00:09:39;99309.84;;;24.94
15709;BMP180;7954;51.914;8.420;2023-07-24T00:12:07;99313.63;;;24.98
15709;BMP180;7954;51.914;8.420;2023-07-24T00:14:35;99307.56;;;24.97
15709;BMP180;7954;51.914;8.420;2023-07-24T00:17:04;99304.81;;;24.96
15709;BMP180;7954;51.914;8.420;2023-07-24T00:19:33;99296.38;;;24.88
15709;BMP180;7954;51.914;8.420;2023-07-24T00:22:02;99294.22;;;24.93
15709;BMP180;7954;51.914;8.420;2023-07-24T00:24:31;99295.81;;;25.01
15709;BMP180;7954;51.914;8.420;2023-07-24T00:26:59;99294.22;;;24.93
15709;BMP180;7954;51.914;8.420;2023-07-24T00:29:28;99289.81;;;24.92
15709;BMP180;7954;51.914;8.420;2023-07-24T00:31:56;99287.47;;;24.85
15709;BMP180;7954;51.914;8.420;2023-07-24T00:34:24;99290.19;;;24.86
15709;BMP180;7954;51.914;8.420;2023-07-24T00:36:56;99286.41;;;24.83
15709;BMP180;7954;51.914;8.420;2023-07-24T00:39:24;99286.66;;;24.86
15709;BMP180;7954;51.914;8.420;2023-07-24T00:41:55;99288.63;;;24.88
15709;BMP180;7954;51.914;8.420;2023-07-24T00:44:23;99285.34;;;24.81
15709;BMP180;7954;51.914;8.420;2023-07-24T00:46:51;99286.41;;;24.83
15709;BMP180;7954;51.914;8.420;2023-07-24T00:49:19;99285.69;;;24.75
15709;BMP180;7954;51.914;8.420;2023-07-24T00:51:48;99285.81;;;24.77
15709;BMP180;7954;51.914;8.420;2023-07-24T00:54:18;99277.69;;;24.72
15709;BMP180;7954;51.914;8.420;2023-07-24T00:56:47;99277.69;;;24.72
15709;BMP180;7954;51.914;8.420;2023-07-24T00:59:15;99278.31;;;24.70
15709;BMP180;7954;51.914;8.420;2023-07-24T01:01:44;99281.78;;;24.70
15709;BMP180;7954;51.914;8.420;2023-07-24T01:04:13;99279.38;;;24.63
15709;BMP180;7954;51.914;8.420;2023-07-24T01:06:41;99281.91;;;24.72
15709;BMP180;7954;51.914;8.420;2023-07-24T01:09:09;99274.66;;;24.68
15709;BMP180;7954;51.914;8.420;2023-07-24T01:11:41;99263.50;;;24.77
15709;BMP180;7954;51.914;8.420;2023-07-24T01:14:14;99263.50;;;24.77
15709;BMP180;7954;51.914;8.420;2023-07-24T01:16:46;99259.25;;;24.78
15709;BMP180;7954;51.914;8.420;2023-07-24T01:19:20;99252.38;;;24.78
15709;BMP180;7954;51.914;8.420;2023-07-24T01:22:01;99256.66;;;24.78
15709;BMP180;7954;51.914;8.420;2023-07-24T01:24:33;99254.22;;;24.79
15709;BMP180;7954;51.914;8.420;2023-07-24T01:27:07;99257.53;;;24.78
15709;BMP180;7954;51.914;8.420;2023-07-24T01:29:35;99268.38;;;24.74
15709;BMP180;7954;51.914;8.420;2023-07-24T01:32:04;99257.47;;;24.68
15709;BMP180;7954;51.914;8.420;2023-07-24T01:34:32;99259.91;;;24.67
15709;BMP180;7954;51.914;8.420;2023-07-24T01:37:00;99249.50;;;24.57
15709;BMP180;7954;51.914;8.420;2023-07-24T01:39:28;99254.81;;;24.59
15709;BMP180;7954;51.914;8.420;2023-07-24T01:41:56;99253.78;;;24.57
15709;BMP180;7954;51.914;8.420;2023-07-24T01:44:26;99245.81;;;24.45
15709;BMP180;7954;51.914;8.420;2023-07-24T01:46:54;99241.81;;;24.49
15709;BMP180;7954;51.914;8.420;2023-07-24T01:49:22;99243.22;;;24.45
15709;BMP180;7954;51.914;8.420;2023-07-24T01:51:50;99235.19;;;24.42
15709;BMP180;7954;51.914;8.420;2023-07-24T01:54:18;99234.06;;;24.49
15709;BMP180;7954;51.914;8.420;2023-07-24T01:56:46;99222.84;;;24.48
15709;BMP180;7954;51.914;8.420;2023-07-24T01:59:14;99225.56;;;24.50
15709;BMP180;7954;51.914;8.420;2023-07-24T02:01:43;99230.31;;;24.45
15709;BMP180;7954;51.914;8.420;2023-07-24T02:04:11;99239.84;;;24.46
15709;BMP180;7954;51.914;8.420;2023-07-24T02:06:39;99233.94;;;24.47
15709;BMP180;7954;51.914;8.420;2023-07-24T02:09:07;99226.63;;;24.52
15709;BMP180;7954;51.914;8.420;2023-07-24T02:11:35;99226.91;;;24.55
15709;BMP180;7954;51.914;8.420;2023-07-24T02:14:03;99219.59;;;24.59
15709;BMP180;7954;51.914;8.420;2023-07-24T02:16:31;99217.22;;;24.70
15709;BMP180;7954;51.914;8.420;2023-07-24T02:19:01;99219.03;;;24.71
15709;BMP180;7954;51.914;8.420;2023-07-24T02:21:29;99219.94;;;24.72
15709;BMP180;7954;51.914;8.420;2023-07-24T02:23:57;99220.22;;;24.75
15709;BMP180;7954;51.914;8.420;2023-07-24T02:26:25;99208.84;;;24.73
15709;BMP180;7954;51.914;8.420;2023-07-24T02:28:53;99210.94;;;24.77
15709;BMP180;7954;51.914;8.420;2023-07-24T02:31:21;99205.75;;;24.77
15709;BMP180;7954;51.914;8.420;2023-07-24T02:33:49;99198.78;;;24.76
15709;BMP180;7954;51.914;8.420;2023-07-24T02:36:19;99198.00;;;24.77
15709;BMP180;7954;51.914;8.420;2023-07-24T02:38:47;99198.78;;;24.76
15709;BMP180;7954;51.914;8.420;2023-07-24T02:41:15;99188.94;;;24.72
15709;BMP180;7954;51.914;8.420;2023-07-24T02:43:42;99185.34;;;24.70
15709;BMP180;7954;51.914;8.420;2023-07-24T02:46:10;99179.59;;;24.64
15709;BMP180;7954;51.914;8.420;2023-07-24T02:48:39;99181.75;;;24.60
15709;BMP180;7954;51.914;8.420;2023-07-24T02:51:07;99189.09;;;24.55
15709;BMP180;7954;51.914;8.420;2023-07-24T02:53:37;99176.66;;;24.51
15709;BMP180;7954;51.914;8.420;2023-07-24T02:56:06;99183.38;;;24.49
15709;BMP180;7954;51.914;8.420;2023-07-24T02:58:36;99189.03;;;24.45
15709;BMP180;7954;51.914;8.420;2023-07-24T03:01:04;99188.59;;;24.41
15709;BMP180;7954;51.914;8.420;2023-07-24T03:03:33;99189.81;;;24.36
15709;BMP180;7954;51.914;8.420;2023-07-24T03:06:03;99186.78;;;24.31
15709;BMP180;7954;51.914;8.420;2023-07-24T03:08:31;99194.13;;;24.27
15709;BMP180;7954;51.914;8.420;2023-07-24T03:11:03;99201.16;;;24.19
15709;BMP180;7954;51.914;8.420;2023-07-24T03:13:32;99194.16;;;24.18
15709;BMP180;7954;51.914;8.420;2023-07-24T03:16:00;99194.03;;;24.17
15709;BMP180;7954;51.914;8.420;2023-07-24T03:18:27;99181.91;;;24.16
15709;BMP180;7954;51.914;8.420;2023-07-24T03:20:57;99182.66;;;24.15
15709;BMP180;7954;51.914;8.420;2023-07-24T03:23:26;99179.94;;;24.13
15709;BMP180;7954;51.914;8.420;2023-07-24T03:25:54;99167.66;;;24.11
15709;BMP180;7954;51.914;8.420;2023-07-24T03:28:23;99169.03;;;24.07
15709;BMP180;7954;51.914;8.420;2023-07-24T03:30:51;99167.53;;;24.09
15709;BMP180;7954;51.914;8.420;2023-07-24T03:33:20;99164.63;;;24.06
15709;BMP180;7954;51.914;8.420;2023-07-24T03:35:49;99162.06;;;24.06
15709;BMP180;7954;51.914;8.420;2023-07-24T03:38:16;99161.31;;;24.07
15709;BMP180;7954;51.914;8.420;2023-07-24T03:40:45;99155.13;;;24.05
15709;BMP180;7954;51.914;8.420;2023-07-24T03:43:14;99153.38;;;24.14
15709;BMP180;7954;51.914;8.420;2023-07-24T03:45:43;99146.66;;;24.16
15709;BMP180;7954;51.914;8.420;2023-07-24T03:48:11;99138.16;;;24.17
15709;BMP180;7954;51.914;8.420;2023-07-24T03:50:40;99137.97;;;24.24
15709;BMP180;7954;51.914;8.420;2023-07-24T03:53:08;99118.09;;;24.23
15709;BMP180;7954;51.914;8.420;2023-07-24T03:55:36;99121.88;;;24.27
15709;BMP180;7954;51.914;8.420;2023-07-24T03:58:04;99109.09;;;24.28
15709;BMP180;7954;51.914;8.420;2023-07-24T04:00:32;99105.75;;;24.29
15709;BMP180;7954;51.914;8.420;2023-07-24T04:03:02;99094.03;;;24.33
15709;BMP180;7954;51.914;8.420;2023-07-24T04:05:31;99088.38;;;24.37
15709;BMP180;7954;51.914;8.420;2023-07-24T04:08:01;99076.50;;;24.39
15709;BMP180;7954;51.914;8.420;2023-07-24T04:10:29;99070.91;;;24.43
15709;BMP180;7954;51.914;8.420;2023-07-24T04:12:58;99068.84;;;24.49
15709;BMP180;7954;51.914;8.420;2023-07-24T04:15:26;99067.13;;;24.58
15709;BMP180;7954;51.914;8.420;2023-07-24T04:17:55;99040.03;;;24.63
15709;BMP180;7954;51.914;8.420;2023-07-24T04:20:25;99052.84;;;24.71
15709;BMP180;7954;51.914;8.420;2023-07-24T04:22:53;99061.91;;;24.76
15709;BMP180;7954;51.914;8.420;2023-07-24T04:25:21;99066.69;;;24.71
15709;BMP180;7954;51.914;8.420;2023-07-24T04:27:50;99072.47;;;24.69
15709;BMP180;7954;51.914;8.420;2023-07-24T04:30:18;99065.34;;;24.66
15709;BMP180;7954;51.914;8.420;2023-07-24T04:32:46;99063.16;;;24.71
15709;BMP180;7954;51.914;8.420;2023-07-24T04:35:15;99062.81;;;24.76
15709;BMP180;7954;51.914;8.420;2023-07-24T04:37:45;99054.31;;;24.77
15709;BMP180;7954;51.914;8.420;2023-07-24T04:40:13;99071.25;;;24.84
15709;BMP180;7954;51.914;8.420;2023-07-24T04:42:41;99066.09;;;24.84
15709;BMP180;7954;51.914;8.420;2023-07-24T04:45:09;99069.31;;;24.81
15709;BMP180;7954;51.914;8.420;2023-07-24T04:47:37;99064.53;;;24.86
15709;BMP180;7954;51.914;8.420;2023-07-24T04:50:06;99064.81;;;24.89
15709;BMP180;7954;51.914;8.420;2023-07-24T04:52:34;99072.69;;;24.90
15709;BMP180;7954;51.914;8.420;2023-07-24T04:55:04;99063.03;;;24.98
15709;BMP180;7954;51.914;8.420;2023-07-24T04:57:32;99053.53;;;25.07
15709;BMP180;7954;51.914;8.420;2023-07-24T05:00:00;99044.25;;;25.09
15709;BMP180;7954;51.914;8.420;2023-07-24T05:02:28;99046.31;;;25.13
15709;BMP180;7954;51.914;8.420;2023-07-24T05:04:56;99041.16;;;25.13
15709;BMP180;7954;51.914;8.420;2023-07-24T05:07:24;99044.91;;;25.16
15709;BMP180;7954;51.914;8.420;2023-07-24T05:09:52;99031.34;;;25.09
15709;BMP180;7954;51.914;8.420;2023-07-24T05:12:22;99042.44;;;25.08
15709;BMP180;7954;51.914;8.420;2023-07-24T05:14:51;99033.81;;;25.17
15709;BMP180;7954;51.914;8.420;2023-07-24T05:17:19;99041.06;;;25.21
15709;BMP180;7954;51.914;8.420;2023-07-24T05:19:47;99041.31;;;25.24
15709;BMP180;7954;51.914;8.420;2023-07-24T05:22:16;99044.94;;;25.26
15709;BMP180;7954;51.914;8.420;2023-07-24T05:24:44;99044.56;;;25.31
15709;BMP180;7954;51.914;8.420;2023-07-24T05:27:11;99037.31;;;25.37
15709;BMP180;7954;51.914;8.420;2023-07-24T05:29:44;99035.13;;;25.32
15709;BMP180;7954;51.914;8.420;2023-07-24T05:32:12;99037.84;;;25.33
15709;BMP180;7954;51.914;8.420;2023-07-24T05:34:40;99033.47;;;25.42
15709;BMP180;7954;51.914;8.420;2023-07-24T05:37:11;99042.81;;;25.70
15709;BMP180;7954;51.914;8.420;2023-07-24T05:39:39;99028.09;;;25.79
15709;BMP180;7954;51.914;8.420;2023-07-24T05:42:07;99040.47;;;26.03
15709;BMP180;7954;51.914;8.420;2023-07-24T05:44:37;99036.59;;;26.08
15709;BMP180;7954;51.914;8.420;2023-07-24T05:47:06;99034.75;;;26.17
15709;BMP180;7954;51.914;8.420;2023-07-24T05:49:34;99035.53;;;26.16
15709;BMP180;7954;51.914;8.420;2023-07-24T05:52:03;99047.59;;;26.15
15709;BMP180;7954;51.914;8.420;2023-07-24T05:54:31;99044.50;;;25.99
15709;BMP180;7954;51.914;8.420;2023-07-24T05:56:58;99042.94;;;26.01
15709;BMP180;7954;51.914;8.420;2023-07-24T05:59:26;99048.38;;;26.04
15709;BMP180;7954;51.914;8.420;2023-07-24T06:01:54;99057.44;;;25.99
15709;BMP180;7954;51.914;8.420;2023-07-24T06:04:24;99053.91;;;25.69
15709;BMP180;7954;51.914;8.420;2023-07-24T06:06:52;99061.66;;;25.49
15709;BMP180;7954;51.914;8.420;2023-07-24T06:09:20;99069.59;;;25.23
15709;BMP180;7954;51.914;8.420;2023-07-24T06:11:48;99064.63;;;25.06
15709;BMP180;7954;51.914;8.420;2023-07-24T06:14:16;99065.19;;;25.12
15709;BMP180;7954;51.914;8.420;2023-07-24T06:16:44;99073.50;;;25.27
15709;BMP180;7954;51.914;8.420;2023-07-24T06:19:12;99084.56;;;25.17
15709;BMP180;7954;51.914;8.420;2023-07-24T06:21:41;99085.31;;;25.06
15709;BMP180;7954;51.914;8.420;2023-07-24T06:24:09;99076.47;;;24.94
15709;BMP180;7954;51.914;8.420;2023-07-24T06:26:39;99081.28;;;24.81
15709;BMP180;7954;51.914;8.420;2023-07-24T06:29:07;99082.94;;;24.70
15709;BMP180;7954;51.914;8.420;2023-07-24T06:31:35;99086.91;;;24.67
15709;BMP180;7954;51.914;8.420;2023-07-24T06:34:04;99079.50;;;24.80
15709;BMP180;7954;51.914;8.420;2023-07-24T06:36:32;99102.13;;;24.82
15709;BMP180;7954;51.914;8.420;2023-07-24T06:39:04;99095.84;;;24.99
15709;BMP180;7954;51.914;8.420;2023-07-24T06:41:31;99088.22;;;25.19
15709;BMP180;7954;51.914;8.420;2023-07-24T06:44:00;99095.47;;;25.32
15709;BMP180;7954;51.914;8.420;2023-07-24T06:46:28;99098.19;;;25.34
15709;BMP180;7954;51.914;8.420;2023-07-24T06:48:56;99101.69;;;25.34
15709;BMP180;7954;51.914;8.420;2023-07-24T06:51:24;99105.22;;;25.45
15709;BMP180;7954;51.914;8.420;2023-07-24T06:53:52;99098.78;;;25.70
15709;BMP180;7954;51.914;8.420;2023-07-24T06:56:22;99103.22;;;25.81
15709;BMP180;7954;51.914;8.420;2023-07-24T06:58:50;99092.38;;;25.94
15709;BMP180;7954;51.914;8.420;2023-07-24T07:01:18;99096.25;;;25.80
15709;BMP180;7954;51.914;8.420;2023-07-24T07:03:46;99098.47;;;25.95
15709;BMP180;7954;51.914;8.420;2023-07-24T07:06:14;99095.47;;;26.20
15709;BMP180;7954;51.914;8.420;2023-07-24T07:08:45;99097.78;;;26.57
15709;BMP180;7954;51.914;8.420;2023-07-24T07:11:13;99085.19;;;26.61
15709;BMP180;7954;51.914;8.420;2023-07-24T07:13:43;99083.16;;;26.28
15709;BMP180;7954;51.914;8.420;2023-07-24T07:16:11;99085.78;;;26.08
15709;BMP180;7954;51.914;8.420;2023-07-24T07:18:39;99103.25;;;26.00
15709;BMP180;7954;51.914;8.420;2023-07-24T07:21:07;99088.47;;;26.09
15709;BMP180;7954;51.914;8.420;2023-07-24T07:23:35;99083.28;;;26.29
15709;BMP180;7954;51.914;8.420;2023-07-24T07:26:03;99076.31;;;26.38
15709;BMP180;7954;51.914;8.420;2023-07-24T07:28:31;99075.16;;;26.25
15709;BMP180;7954;51.914;8.420;2023-07-24T07:31:01;99085.88;;;26.19
15709;BMP180;7954;51.914;8.420;2023-07-24T07:33:29;99080.69;;;26.29
15709;BMP180;7954;51.914;8.420;2023-07-24T07:35:58;99086.41;;;26.25
15709;BMP180;7954;51.914;8.420;2023-07-24T07:38:25;99075.00;;;26.13
15709;BMP180;7954;51.914;8.420;2023-07-24T07:40:54;99084.25;;;26.00
15709;BMP180;7954;51.914;8.420;2023-07-24T07:43:22;99080.72;;;25.90
15709;BMP180;7954;51.914;8.420;2023-07-24T07:45:50;99087.59;;;25.99
15709;BMP180;7954;51.914;8.420;2023-07-24T07:48:20;99080.81;;;26.21
15709;BMP180;7954;51.914;8.420;2023-07-24T07:50:50;99080.56;;;26.28
15709;BMP180;7954;51.914;8.420;2023-07-24T07:53:18;99091.31;;;26.62
15709;BMP180;7954;51.914;8.420;2023-07-24T07:55:46;99088.16;;;27.07
15709;BMP180;7954;51.914;8.420;2023-07-24T07:58:13;99095.06;;;27.28
15709;BMP180;7954;51.914;8.420;2023-07-24T08:00:41;99078.78;;;27.40
15709;BMP180;7954;51.914;8.420;2023-07-24T08:03:09;99070.28;;;27.53
15709;BMP180;7954;51.914;8.420;2023-07-24T08:05:39;99073.88;;;27.55
15709;BMP180;7954;51.914;8.420;2023-07-24T08:08:07;99072.00;;;27.74
15709;BMP180;7954;51.914;8.420;2023-07-24T08:10:37;99065.97;;;27.96
15709;BMP180;7954;51.914;8.420;2023-07-24T08:13:09;99062.81;;;28.00
15709;BMP180;7954;51.914;8.420;2023-07-24T08:15:37;99060.31;;;27.90
15709;BMP180;7954;51.914;8.420;2023-07-24T08:18:05;99045.09;;;27.94
15709;BMP180;7954;51.914;8.420;2023-07-24T08:20:35;99046.47;;;27.68
15709;BMP180;7954;51.914;8.420;2023-07-24T08:23:05;99044.09;;;27.50
15709;BMP180;7954;51.914;8.420;2023-07-24T08:25:33;99047.81;;;27.53
15709;BMP180;7954;51.914;8.420;2023-07-24T08:28:01;99042.53;;;27.52
15709;BMP180;7954;51.914;8.420;2023-07-24T08:30:32;99047.34;;;27.47
15709;BMP180;7954;51.914;8.420;2023-07-24T08:33:01;99048.69;;;27.21
15709;BMP180;7954;51.914;8.420;2023-07-24T08:35:29;99045.13;;;27.30
15709;BMP180;7954;51.914;8.420;2023-07-24T08:37:59;99059.72;;;27.40
15709;BMP180;7954;51.914;8.420;2023-07-24T08:40:28;99051.06;;;27.61
15709;BMP180;7954;51.914;8.420;2023-07-24T08:42:56;99034.41;;;27.69
15709;BMP180;7954;51.914;8.420;2023-07-24T08:45:25;99040.59;;;27.71
15709;BMP180;7954;51.914;8.420;2023-07-24T08:47:53;99039.59;;;27.69
15709;BMP180;7954;51.914;8.420;2023-07-24T08:50:22;99041.00;;;27.87
15709;BMP180;7954;51.914;8.420;2023-07-24T08:52:50;99041.22;;;27.90
15709;BMP180;7954;51.914;8.420;2023-07-24T08:55:19;99039.34;;;28.10
15709;BMP180;7954;51.914;8.420;2023-07-24T08:57:49;99039.56;;;28.01
15709;BMP180;7954;51.914;8.420;2023-07-24T09:00:19;99029.91;;;27.78
15709;BMP180;7954;51.914;8.420;2023-07-24T09:02:47;99037.91;;;27.81
15709;BMP180;7954;51.914;8.420;2023-07-24T09:05:15;99028.28;;;28.12
15709;BMP180;7954;51.914;8.420;2023-07-24T09:07:44;99030.66;;;28.09
15709;BMP180;7954;51.914;8.420;2023-07-24T09:10:13;99031.47;;;28.08
15709;BMP180;7954;51.914;8.420;2023-07-24T09:12:41;99031.41;;;28.30
15709;BMP180;7954;51.914;8.420;2023-07-24T09:15:12;99028.34;;;28.35
15709;BMP180;7954;51.914;8.420;2023-07-24T09:17:48;99019.09;;;28.27
15709;BMP180;7954;51.914;8.420;2023-07-24T09:20:16;99027.75;;;28.28
15709;BMP180;7954;51.914;8.420;2023-07-24T09:22:58;99032.44;;;28.43
15709;BMP180;7954;51.914;8.420;2023-07-24T09:25:32;99025.75;;;28.58
15709;BMP180;7954;51.914;8.420;2023-07-24T09:28:08;99030.78;;;29.14
15709;BMP180;7954;51.914;8.420;2023-07-24T09:30:39;99014.94;;;29.33
15709;BMP180;7954;51.914;8.420;2023-07-24T09:33:08;99017.38;;;29.43
15709;BMP180;7954;51.914;8.420;2023-07-24T09:35:36;99014.44;;;29.39
15709;BMP180;7954;51.914;8.420;2023-07-24T09:38:06;99020.81;;;29.55
15709;BMP180;7954;51.914;8.420;2023-07-24T09:40:39;99015.38;;;29.77
15709;BMP180;7954;51.914;8.420;2023-07-24T09:43:16;99006.69;;;30.13
15709;BMP180;7954;51.914;8.420;2023-07-24T09:46:06;99004.06;;;30.51
15709;BMP180;7954;51.914;8.420;2023-07-24T09:48:35;99002.25;;;30.62
15709;BMP180;7954;51.914;8.420;2023-07-24T09:51:11;99002.88;;;30.59
15709;BMP180;7954;51.914;8.420;2023-07-24T09:53:44;98995.72;;;30.30
15709;BMP180;7954;51.914;8.420;2023-07-24T09:56:17;98988.47;;;29.76
15709;BMP180;7954;51.914;8.420;2023-07-24T09:58:54;98992.72;;;29.63
15709;BMP180;7954;51.914;8.420;2023-07-24T10:01:25;98996.13;;;29.37
15709;BMP180;7954;51.914;8.420;2023-07-24T10:03:55;99011.53;;;28.53
15709;BMP180;7954;51.914;8.420;2023-07-24T10:06:24;99022.50;;;27.93
15709;BMP180;7954;51.914;8.420;2023-07-24T10:08:52;99024.72;;;27.35
15709;BMP180;7954;51.914;8.420;2023-07-24T10:11:20;99031.63;;;27.34
15709;BMP180;7954;51.914;8.420;2023-07-24T10:13:50;99036.16;;;27.37
15709;BMP180;7954;51.914;8.420;2023-07-24T10:16:18;99013.72;;;27.59
15709;BMP180;7954;51.914;8.420;2023-07-24T10:18:48;99013.88;;;27.72
15709;BMP180;7954;51.914;8.420;2023-07-24T10:21:16;99023.75;;;27.98
15709;BMP180;7954;51.914;8.420;2023-07-24T10:23:45;99018.88;;;28.36
15709;BMP180;7954;51.914;8.420;2023-07-24T10:26:14;99001.47;;;28.80
15709;BMP180;7954;51.914;8.420;2023-07-24T10:28:46;98994.19;;;28.99
15709;BMP180;7954;51.914;8.420;2023-07-24T10:31:19;98990.84;;;28.43
15709;BMP180;7954;51.914;8.420;2023-07-24T10:33:51;98991.06;;;28.58
15709;BMP180;7954;51.914;8.420;2023-07-24T10:36:20;99006.22;;;27.85
15709;BMP180;7954;51.914;8.420;2023-07-24T10:38:53;99009.59;;;27.51
15709;BMP180;7954;51.914;8.420;2023-07-24T10:41:21;99028.13;;;27.13
15709;BMP180;7954;51.914;8.420;2023-07-24T10:43:51;99015.97;;;27.12
15709;BMP180;7954;51.914;8.420;2023-07-24T10:46:20;99013.50;;;27.13
15709;BMP180;7954;51.914;8.420;2023-07-24T10:48:51;99017.16;;;27.48
15709;BMP180;7954;51.914;8.420;2023-07-24T10:51:21;99017.44;;;28.06
15709;BMP180;7954;51.914;8.420;2023-07-24T10:53:49;99011.09;;;28.24
15709;BMP180;7954;51.914;8.420;2023-07-24T10:56:17;99007.34;;;28.44
15709;BMP180;7954;51.914;8.420;2023-07-24T10:58:45;98999.41;;;28.88
15709;BMP180;7954;51.914;8.420;2023-07-24T11:01:13;98994.75;;;29.42
15709;BMP180;7954;51.914;8.420;2023-07-24T11:03:42;98999.16;;;29.92
15709;BMP180;7954;51.914;8.420;2023-07-24T11:06:16;98988.28;;;30.10
15709;BMP180;7954;51.914;8.420;2023-07-24T11:08:50;98984.91;;;30.63
15709;BMP180;7954;51.914;8.420;2023-07-24T11:11:20;98979.69;;;30.63
15709;BMP180;7954;51.914;8.420;2023-07-24T11:13:49;98983.59;;;30.57
15709;BMP180;7954;51.914;8.420;2023-07-24T11:16:17;98979.91;;;30.53
15709;BMP180;7954;51.914;8.420;2023-07-24T11:18:45;98986.00;;;30.66
15709;BMP180;7954;51.914;8.420;2023-07-24T11:21:22;98976.69;;;30.96
15709;BMP180;7954;51.914;8.420;2023-07-24T11:23:52;98984.94;;;31.16
15709;BMP180;7954;51.914;8.420;2023-07-24T11:26:20;98992.69;;;31.15
15709;BMP180;7954;51.914;8.420;2023-07-24T11:28:49;98988.50;;;31.31
15709;BMP180;7954;51.914;8.420;2023-07-24T11:31:17;98989.16;;;31.69
15709;BMP180;7954;51.914;8.420;2023-07-24T11:33:48;98972.81;;;31.86
15709;BMP180;7954;51.914;8.420;2023-07-24T11:36:17;98980.19;;;31.78
15709;BMP180;7954;51.914;8.420;2023-07-24T11:38:46;98972.25;;;31.91
15709;BMP180;7954;51.914;8.420;2023-07-24T11:41:16;98969.63;;;31.91
15709;BMP180;7954;51.914;8.420;2023-07-24T11:43:45;98963.53;;;31.49
15709;BMP180;7954;51.914;8.420;2023-07-24T11:46:22;98965.53;;;30.59
15709;BMP180;7954;51.914;8.420;2023-07-24T11:48:50;98976.38;;;29.52
15709;BMP180;7954;51.914;8.420;2023-07-24T11:51:20;98978.63;;;29.24
15709;BMP180;7954;51.914;8.420;2023-07-24T11:53:50;98970.31;;;29.40
15709;BMP180;7954;51.914;8.420;2023-07-24T11:56:19;98973.00;;;29.66
15709;BMP180;7954;51.914;8.420;2023-07-24T11:58:49;98967.03;;;30.30
15709;BMP180;7954;51.914;8.420;2023-07-24T12:01:17;98946.06;;;30.29
15709;BMP180;7954;51.914;8.420;2023-07-24T12:03:45;98950.09;;;30.11
15709;BMP180;7954;51.914;8.420;2023-07-24T12:06:14;98936.97;;;30.35
15709;BMP180;7954;51.914;8.420;2023-07-24T12:08:43;98938.63;;;30.86
15709;BMP180;7954;51.914;8.420;2023-07-24T12:11:19;98929.34;;;31.31
15709;BMP180;7954;51.914;8.420;2023-07-24T12:13:47;98928.22;;;31.41
15709;BMP180;7954;51.914;8.420;2023-07-24T12:16:17;98913.28;;;31.38
15709;BMP180;7954;51.914;8.420;2023-07-24T12:18:45;98900.41;;;31.00
15709;BMP180;7954;51.914;8.420;2023-07-24T12:21:13;98908.59;;;30.40
15709;BMP180;7954;51.914;8.420;2023-07-24T12:23:41;98907.63;;;30.12
15709;BMP180;7954;51.914;8.420;2023-07-24T12:26:09;98905.44;;;29.68
15709;BMP180;7954;51.914;8.420;2023-07-24T12:28:38;98912.81;;;29.49
15709;BMP180;7954;51.914;8.420;2023-07-24T12:31:06;98927.16;;;29.20
15709;BMP180;7954;51.914;8.420;2023-07-24T12:33:34;98931.63;;;28.62
15709;BMP180;7954;51.914;8.420;2023-07-24T12:36:03;98938.91;;;28.32
15709;BMP180;7954;51.914;8.420;2023-07-24T12:38:31;98939.91;;;28.11
15709;BMP180;7954;51.914;8.420;2023-07-24T12:40:59;98963.34;;;27.90
15709;BMP180;7954;51.914;8.420;2023-07-24T12:43:27;98989.19;;;26.91
15709;BMP180;7954;51.914;8.420;2023-07-24T12:45:56;99015.13;;;25.69
15709;BMP180;7954;51.914;8.420;2023-07-24T12:48:24;99052.66;;;24.88
15709;BMP180;7954;51.914;8.420;2023-07-24T12:50:52;99052.31;;;23.38
15709;BMP180;7954;51.914;8.420;2023-07-24T12:53:23;99044.59;;;23.65
15709;BMP180;7954;51.914;8.420;2023-07-24T12:55:58;99023.50;;;23.69
15709;BMP180;7954;51.914;8.420;2023-07-24T12:58:26;98994.00;;;23.84
15709;BMP180;7954;51.914;8.420;2023-07-24T13:00:54;98988.97;;;23.85
15709;BMP180;7954;51.914;8.420;2023-07-24T13:03:24;99001.38;;;23.44
15709;BMP180;7954;51.914;8.420;2023-07-24T13:05:52;99018.94;;;23.21
15709;BMP180;7954;51.914;8.420;2023-07-24T13:08:20;99010.00;;;23.18
15709;BMP180;7954;51.914;8.420;2023-07-24T13:10:49;99017.75;;;23.18
15709;BMP180;7954;51.914;8.420;2023-07-24T13:13:19;99026.38;;;23.10
15709;BMP180;7954;51.914;8.420;2023-07-24T13:15:47;99035.63;;;23.16
15709;BMP180;7954;51.914;8.420;2023-07-24T13:18:16;99046.47;;;22.87
15709;BMP180;7954;51.914;8.420;2023-07-24T13:20:56;99044.84;;;22.70
15709;BMP180;7954;51.914;8.420;2023-07-24T13:23:24;99063.22;;;22.40
15709;BMP180;7954;51.914;8.420;2023-07-24T13:25:52;99060.78;;;22.33
15709;BMP180;7954;51.914;8.420;2023-07-24T13:28:21;99071.53;;;22.29
15709;BMP180;7954;51.914;8.420;2023-07-24T13:30:49;99053.06;;;22.33
15709;BMP180;7954;51.914;8.420;2023-07-24T13:33:18;99064.84;;;22.48
15709;BMP180;7954;51.914;8.420;2023-07-24T13:35:48;99081.06;;;22.30
15709;BMP180;7954;51.914;8.420;2023-07-24T13:38:18;99085.44;;;22.22
15709;BMP180;7954;51.914;8.420;2023-07-24T13:40:48;99073.31;;;22.04
15709;BMP180;7954;51.914;8.420;2023-07-24T13:43:15;99067.13;;;22.28
15709;BMP180;7954;51.914;8.420;2023-07-24T13:45:45;99037.91;;;22.19
15709;BMP180;7954;51.914;8.420;2023-07-24T13:48:13;99011.75;;;22.23
15709;BMP180;7954;51.914;8.420;2023-07-24T13:50:43;98940.56;;;23.01
15709;BMP180;7954;51.914;8.420;2023-07-24T13:53:11;98889.44;;;23.87
15709;BMP180;7954;51.914;8.420;2023-07-24T13:55:43;98873.59;;;24.49
15709;BMP180;7954;51.914;8.420;2023-07-24T13:58:11;98852.47;;;24.83
15709;BMP180;7954;51.914;8.420;2023-07-24T14:00:39;98847.75;;;25.07
15709;BMP180;7954;51.914;8.420;2023-07-24T14:03:07;98875.91;;;26.05
15709;BMP180;7954;51.914;8.420;2023-07-24T14:05:36;98933.47;;;29.34
15709;BMP180;7954;51.914;8.420;2023-07-24T14:08:04;98875.69;;;32.82
15709;BMP180;7954;51.914;8.420;2023-07-24T14:10:33;98856.19;;;34.76
15709;BMP180;7954;51.914;8.420;2023-07-24T14:13:02;98850.97;;;36.33
15709;BMP180;7954;51.914;8.420;2023-07-24T14:15:30;98820.53;;;37.29
15709;BMP180;7954;51.914;8.420;2023-07-24T14:17:59;98875.44;;;37.88
15709;BMP180;7954;51.914;8.420;2023-07-24T14:20:27;98875.41;;;38.38
15709;BMP180;7954;51.914;8.420;2023-07-24T14:22:55;98877.41;;;38.45
15709;BMP180;7954;51.914;8.420;2023-07-24T14:25:23;98884.91;;;38.33
15709;BMP180;7954;51.914;8.420;2023-07-24T14:27:51;98882.00;;;38.24
15709;BMP180;7954;51.914;8.420;2023-07-24T14:30:21;98889.25;;;38.06
15709;BMP180;7954;51.914;8.420;2023-07-24T14:32:49;98885.72;;;38.30